Stations météo

réclame
Mon MeteoGroup
La Hoya, Espagne (8205): Température de l'air & dewpoint: 16.06.2018 19:00:00 - 22.06.2018 19:00:00 (CEST)La Hoya, Espagne (8205): Vitesse du vent & gusts: 16.06.2018 19:00:00 - 22.06.2018 19:00:00 (CEST)La Hoya, Espagne (8205): Direction du vent: 16.06.2018 19:00:00 - 22.06.2018 19:00:00 (CEST)La Hoya, Espagne (8205): visibility: 16.06.2018 19:00:00 - 22.06.2018 19:00:00 (CEST)La Hoya, Espagne (8205): Quantités de précipitations: 16.06.2018 19:00:00 - 22.06.2018 19:00:00 (CEST)
Date & Time tt [°C] td [°C] ff [km/h] ff [knt] fx [km/h] fx [knt] dd vv [km] rr [mm]
22.06.2018 19:00:00 - - - - - - - - -
22.06.2018 18:00:00 18,1 14,8 7 4 18 10 NNE 13 0,0
22.06.2018 17:00:00 19,0 14,9 8 5 25 13 NW 13 0,0
22.06.2018 16:00:00 19,9 10,9 10 6 42 23 NE 12 0,0
22.06.2018 15:00:00 20,2 9,4 19 11 40 21 ENE 20 0,0
22.06.2018 14:00:00 20,3 3,9 16 9 49 26 E 20 -
22.06.2018 13:00:00 19,9 1,9 23 12 49 27 E 20 0,0
22.06.2018 12:00:00 19,7 3,8 17 9 47 26 ESE 20 0,0
22.06.2018 11:00:00 19,1 3,2 24 13 42 23 SE 20 0,0
22.06.2018 10:00:00 18,2 2,9 27 15 43 23 SE 20 0,0
22.06.2018 09:00:00 17,6 2,3 19 11 37 20 SE 20 0,0
22.06.2018 08:00:00 16,6 1,9 19 11 42 23 SSE 20 -
22.06.2018 07:00:00 15,4 1,9 23 12 42 23 SE 20 0,0
22.06.2018 06:00:00 14,8 2,3 26 14 42 23 ESE 20 0,0
22.06.2018 05:00:00 15,0 2,9 22 12 41 22 ESE 20 0,0
22.06.2018 04:00:00 14,6 3,0 21 12 36 19 SE 20 0,0
22.06.2018 03:00:00 14,7 2,3 21 11 37 20 ESE 20 0,0
22.06.2018 02:00:00 15,0 1,9 19 10 41 22 ESE 20 -
22.06.2018 01:00:00 15,3 1,7 23 12 35 19 E 20 0,0
22.06.2018 00:00:00 15,2 5,5 19 11 33 18 ESE 20 0,0
21.06.2018 23:00:00 15,1 8,5 19 10 26 14 ESE 20 0,0
21.06.2018 22:00:00 14,1 11,6 8 5 19 11 ESE 20 0,0
21.06.2018 21:00:00 14,8 11,3 12 7 17 9 ESE 20 0,0
21.06.2018 20:00:00 15,3 12,4 6 3 11 6 E 12 -
21.06.2018 19:00:00 15,9 12,4 8 4 20 11 S 20 0,0
21.06.2018 18:00:00 18,2 12,0 6 4 16 9 NNE 20 0,0
21.06.2018 17:00:00 17,6 11,9 8 4 19 10 W 20 0,0
21.06.2018 16:00:00 17,2 11,9 10 5 21 11 WNW 20 0,0
21.06.2018 15:00:00 17,7 12,1 13 7 23 12 W 20 0,0
21.06.2018 14:00:00 19,3 8,7 9 5 29 16 SSW 20 -
21.06.2018 13:00:00 18,8 9,0 5 3 32 18 N 20 0,0
21.06.2018 12:00:00 19,1 7,1 19 11 40 22 SE 20 0,0
21.06.2018 11:00:00 18,7 6,8 19 10 36 19 SSE 20 0,0
21.06.2018 10:00:00 18,0 6,5 19 10 34 18 SSE 20 0,0
21.06.2018 09:00:00 16,8 7,4 20 11 29 16 SE 20 0,0
21.06.2018 08:00:00 14,4 9,7 21 12 33 18 SE 20 -
21.06.2018 07:00:00 13,1 9,2 23 12 29 16 SE 20 0,0
21.06.2018 06:00:00 13,2 8,5 23 12 30 16 SE 20 0,0
21.06.2018 05:00:00 11,8 8,8 19 10 36 19 E 20 0,0
21.06.2018 04:00:00 11,9 9,3 22 12 33 18 E 20 0,0
21.06.2018 03:00:00 12,1 8,9 16 9 31 17 E 20 0,0
21.06.2018 02:00:00 12,4 8,5 13 7 26 14 E 20 -
21.06.2018 01:00:00 12,9 8,4 6 3 19 11 ENE 20 0,0
21.06.2018 00:00:00 13,6 9,8 4 2 13 7 NE 20 0,0
20.06.2018 23:00:00 14,7 10,3 7 4 18 10 W 20 0,0
20.06.2018 22:00:00 15,7 8,9 6 3 10 5 SE 20 0,0
20.06.2018 21:00:00 18,2 9,6 4 2 10 5 ENE 20 0,0
20.06.2018 20:00:00 18,5 8,8 6 4 15 8 ENE 20 -
20.06.2018 19:00:00 19,1 8,7 7 4 20 11 ENE 20 0,0
20.06.2018 18:00:00 18,2 10,5 14 8 28 15 E 16 0,0
20.06.2018 17:00:00 18,1 8,7 10 5 22 12 NNW 20 0,0
20.06.2018 16:00:00 18,2 9,3 10 5 16 9 W 20 0,0
20.06.2018 15:00:00 18,1 7,6 9 5 14 8 WSW 20 0,0
20.06.2018 14:00:00 17,5 8,7 6 4 9 5 W 20 -
20.06.2018 13:00:00 17,6 10,5 4 2 10 5 W 20 0,0
20.06.2018 12:00:00 17,7 7,4 4 2 10 5 W 20 0,0
20.06.2018 11:00:00 17,6 8,4 5 3 11 6 W 20 0,0
20.06.2018 10:00:00 18,3 6,8 7 4 11 6 NW 20 0,0
20.06.2018 09:00:00 18,1 6,5 5 3 9 5 W 20 0,0
20.06.2018 08:00:00 15,6 7,4 6 4 11 6 SSW 20 -
20.06.2018 07:00:00 12,1 6,4 8 4 11 6 S 20 0,0
20.06.2018 06:00:00 12,8 6,5 10 5 - - S 20 -
20.06.2018 05:00:00 12,9 6,7 13 7 17 9 SSW 20 0,0
20.06.2018 04:00:00 13,1 6,7 13 7 17 9 SSW 20 0,0
20.06.2018 03:00:00 14,0 7,3 11 6 19 10 S 20 0,0
20.06.2018 02:00:00 13,7 7,7 16 9 21 11 SE 20 -
20.06.2018 01:00:00 14,5 8,3 16 9 21 12 ESE 20 0,0
20.06.2018 00:00:00 14,8 9,2 13 7 17 9 ESE 20 0,0
19.06.2018 23:00:00 14,8 7,6 6 3 9 5 SSE 20 0,0
19.06.2018 22:00:00 15,6 7,6 5 3 15 8 SW 20 0,0
19.06.2018 21:00:00 19,0 7,7 8 4 23 12 WNW 20 0,0
19.06.2018 20:00:00 19,8 8,1 9 5 25 13 NW 20 -
19.06.2018 19:00:00 19,8 8,8 10 5 29 16 NW 20 0,0
19.06.2018 18:00:00 19,1 7,8 16 8 36 19 WNW 20 0,0
19.06.2018 17:00:00 20,1 7,4 16 9 43 23 W 20 0,0
19.06.2018 16:00:00 20,3 7,3 20 11 38 20 WNW 20 0,0
19.06.2018 15:00:00 19,7 11,2 19 10 35 19 WNW 20 0,0
19.06.2018 14:00:00 18,6 10,9 13 7 27 15 WNW 20 -
19.06.2018 13:00:00 18,4 10,8 14 8 26 14 WNW 20 0,0
19.06.2018 12:00:00 18,6 8,8 14 8 27 15 W 20 0,0
19.06.2018 11:00:00 18,6 7,4 14 8 30 16 W 20 0,0
19.06.2018 10:00:00 18,1 5,9 17 9 - - W 20 0,0
19.06.2018 09:00:00 17,2 5,8 16 8 24 13 WSW 20 0,0
19.06.2018 08:00:00 15,2 6,2 15 8 21 12 SW 20 -
19.06.2018 07:00:00 11,8 5,1 11 6 19 10 SW 20 0,0
19.06.2018 06:00:00 11,3 5,5 8 4 14 8 S 20 0,0
19.06.2018 05:00:00 12,0 5,5 9 5 14 8 SSW 20 0,0
19.06.2018 04:00:00 12,3 4,5 8 5 - - SSW 20 0,0
19.06.2018 03:00:00 13,0 5,5 16 8 - - S 20 0,0
19.06.2018 02:00:00 13,0 4,5 - - - - - 20 -
19.06.2018 01:00:00 13,1 5,8 - - - - - 20 0,0
19.06.2018 00:00:00 12,3 8,3 18 10 31 17 E 20 0,0
18.06.2018 23:00:00 13,3 8,0 24 13 31 17 E 20 0,0
18.06.2018 22:00:00 13,9 5,8 21 11 32 18 E 20 0,0
18.06.2018 21:00:00 15,6 7,4 22 12 36 19 ENE 20 0,0
18.06.2018 20:00:00 17,3 8,4 24 13 39 21 ENE 20 -
18.06.2018 19:00:00 18,2 6,4 25 13 43 23 ENE 20 0,0
18.06.2018 18:00:00 18,5 5,3 28 15 42 23 ENE 20 0,0
18.06.2018 17:00:00 18,7 5,5 29 15 45 24 ENE 20 0,0
18.06.2018 16:00:00 18,4 6,5 29 16 41 22 ENE 20 0,0
18.06.2018 15:00:00 18,0 7,4 26 14 40 22 ENE 20 0,0
18.06.2018 14:00:00 17,8 7,8 27 15 41 22 ENE 20 -
18.06.2018 13:00:00 17,5 5,8 23 12 36 19 ENE 20 0,0
18.06.2018 12:00:00 17,2 2,3 18 10 32 17 ENE 20 0,0
18.06.2018 11:00:00 17,3 3,6 22 12 31 17 ENE 20 0,0
18.06.2018 10:00:00 17,0 1,1 21 12 30 16 ENE 20 0,0
18.06.2018 09:00:00 15,6 0,6 20 11 31 17 E 20 0,0
18.06.2018 08:00:00 14,1 0,4 20 11 37 20 E 20 -
18.06.2018 07:00:00 12,8 3,9 26 14 42 23 E 20 0,0
18.06.2018 06:00:00 12,6 4,3 22 12 39 21 E 20 0,0
18.06.2018 05:00:00 13,0 2,3 25 14 39 21 E 20 0,0
18.06.2018 04:00:00 13,7 2,3 22 12 36 19 SE 20 0,0
18.06.2018 03:00:00 13,2 1,3 29 15 34 19 SE 20 0,0
18.06.2018 02:00:00 13,1 -0,5 21 12 33 18 ESE 20 -
18.06.2018 01:00:00 12,9 2,1 26 14 40 21 SE 20 0,0
18.06.2018 00:00:00 13,1 2,9 34 18 45 24 E 20 0,0
17.06.2018 23:00:00 13,0 5,0 25 14 36 20 E 20 0,0
17.06.2018 22:00:00 13,7 5,8 21 11 27 15 E 20 0,0
17.06.2018 21:00:00 15,4 7,1 16 9 28 15 ENE 20 0,0
17.06.2018 20:00:00 16,9 7,3 19 10 30 16 ENE 20 -
17.06.2018 19:00:00 17,7 6,8 19 10 31 17 NE 20 0,0
17.06.2018 18:00:00 17,9 7,0 18 10 33 18 ENE 20 0,0
17.06.2018 17:00:00 18,0 5,6 16 9 35 19 NE 20 0,0
17.06.2018 16:00:00 18,2 6,7 19 11 34 19 ENE 20 0,0
17.06.2018 15:00:00 17,9 7,0 19 11 35 19 NE 20 0,0
17.06.2018 14:00:00 17,6 8,9 16 9 27 14 NE 20 -
17.06.2018 13:00:00 18,2 4,3 14 7 24 13 NE 20 0,0
17.06.2018 12:00:00 17,6 2,3 10 5 20 11 NNE 20 0,0
17.06.2018 11:00:00 17,5 0,2 9 5 17 9 ENE 20 0,0
17.06.2018 10:00:00 17,2 2,3 6 3 13 7 ENE 20 0,0
17.06.2018 09:00:00 16,8 4,5 2 1 11 6 NW 20 0,0
17.06.2018 08:00:00 14,4 5,9 10 5 16 9 SW 20 -
17.06.2018 07:00:00 11,4 7,0 12 6 15 8 SSW 20 0,0
17.06.2018 06:00:00 11,7 6,8 9 5 21 12 SSW 20 0,0
17.06.2018 05:00:00 12,2 -2,2 16 9 21 11 ESE 20 0,0
17.06.2018 04:00:00 12,4 -4,2 16 8 23 12 ESE 20 0,0
17.06.2018 03:00:00 12,6 -7,5 17 9 21 11 ESE 20 0,0
17.06.2018 02:00:00 12,2 -4,5 18 10 29 16 ESE 20 -
17.06.2018 01:00:00 12,2 2,9 19 10 34 19 ESE 20 0,0
17.06.2018 00:00:00 12,8 2,9 26 14 38 20 E 20 0,0
16.06.2018 23:00:00 12,6 4,3 18 10 26 14 E 20 0,0
16.06.2018 22:00:00 13,2 3,8 16 9 23 12 E 20 0,0
16.06.2018 21:00:00 14,8 4,5 16 9 24 13 ENE 20 0,0
16.06.2018 20:00:00 16,0 7,3 16 9 28 15 ENE 20 -
16.06.2018 19:00:00 16,4 8,9 18 10 30 16 ENE 20 0,0

tt = Température de l'air
td = dewpoint
ff = Vitesse du vent
fx = gusts
dd = Direction du vent
vv = visibility
rr = Quantités de précipitations

stations d'obs. à proximité